sensor_id;sensor_type;location;lat;lon;timestamp;P1;durP1;ratioP1;P2;durP2;ratioP2
37419;SDS011;47344;52.374;4.816;2022-07-06T00:00:28;5.7;;;1.7;;
37419;SDS011;47344;52.374;4.816;2022-07-06T00:02:14;5.6;;;1.5;;
37419;SDS011;47344;52.374;4.816;2022-07-06T00:04:02;3.3;;;1.4;;
37419;SDS011;47344;52.374;4.816;2022-07-06T00:05:49;3.9;;;1.2;;
37419;SDS011;47344;52.374;4.816;2022-07-06T00:07:35;2.7;;;1.2;;
37419;SDS011;47344;52.374;4.816;2022-07-06T00:09:21;3.8;;;1.4;;
37419;SDS011;47344;52.374;4.816;2022-07-06T00:12:53;4.1;;;1.3;;
37419;SDS011;47344;52.374;4.816;2022-07-06T00:14:39;3.7;;;1.2;;
37419;SDS011;47344;52.374;4.816;2022-07-06T00:16:27;5.3;;;1.2;;
37419;SDS011;47344;52.374;4.816;2022-07-06T00:18:14;4.8;;;1.4;;
37419;SDS011;47344;52.374;4.816;2022-07-06T00:20:00;2.31;;;1.11;;
37419;SDS011;47344;52.374;4.816;2022-07-06T00:23:32;4.3;;;1.4;;
37419;SDS011;47344;52.374;4.816;2022-07-06T00:25:20;5.2;;;1.5;;
37419;SDS011;47344;52.374;4.816;2022-07-06T00:27:06;3.2;;;1.2;;
37419;SDS011;47344;52.374;4.816;2022-07-06T00:28:53;4.3;;;1.2;;
37419;SDS011;47344;52.374;4.816;2022-07-06T00:30:40;4.5;;;1.11;;
37419;SDS011;47344;52.374;4.816;2022-07-06T00:32:27;4.3;;;1.3;;
37419;SDS011;47344;52.374;4.816;2022-07-06T00:36:01;5.3;;;1.11;;
37419;SDS011;47344;52.374;4.816;2022-07-06T00:37:48;3.1;;;1.0;;
37419;SDS011;47344;52.374;4.816;2022-07-06T00:39:34;4.1;;;1.4;;
37419;SDS011;47344;52.374;4.816;2022-07-06T00:41:20;3.5;;;1.3;;
37419;SDS011;47344;52.374;4.816;2022-07-06T00:43:06;3.1;;;0.9;;
37419;SDS011;47344;52.374;4.816;2022-07-06T00:44:54;3.8;;;1.2;;
37419;SDS011;47344;52.374;4.816;2022-07-06T00:48:26;4.3;;;1.11;;
37419;SDS011;47344;52.374;4.816;2022-07-06T00:50:17;4.61;;;1.3;;
37419;SDS011;47344;52.374;4.816;2022-07-06T00:52:05;4.0;;;1.2;;
37419;SDS011;47344;52.374;4.816;2022-07-06T00:53:53;6.0;;;1.11;;
37419;SDS011;47344;52.374;4.816;2022-07-06T00:55:44;4.2;;;1.3;;
37419;SDS011;47344;52.374;4.816;2022-07-06T00:57:31;5.11;;;1.11;;
37419;SDS011;47344;52.374;4.816;2022-07-06T01:01:04;4.61;;;1.2;;
37419;SDS011;47344;52.374;4.816;2022-07-06T01:02:50;5.3;;;1.4;;
37419;SDS011;47344;52.374;4.816;2022-07-06T01:04:39;3.9;;;1.2;;
37419;SDS011;47344;52.374;4.816;2022-07-06T01:06:25;2.9;;;1.11;;
37419;SDS011;47344;52.374;4.816;2022-07-06T01:08:12;5.11;;;1.2;;
37419;SDS011;47344;52.374;4.816;2022-07-06T01:09:59;4.7;;;1.11;;
37419;SDS011;47344;52.374;4.816;2022-07-06T01:13:34;4.5;;;1.11;;
37419;SDS011;47344;52.374;4.816;2022-07-06T01:15:21;4.0;;;1.11;;
37419;SDS011;47344;52.374;4.816;2022-07-06T01:17:11;4.91;;;1.3;;
37419;SDS011;47344;52.374;4.816;2022-07-06T01:18:59;3.0;;;1.11;;
37419;SDS011;47344;52.374;4.816;2022-07-06T01:20:45;6.1;;;1.2;;
37419;SDS011;47344;52.374;4.816;2022-07-06T01:22:31;3.1;;;1.11;;
37419;SDS011;47344;52.374;4.816;2022-07-06T01:26:04;3.6;;;1.11;;
37419;SDS011;47344;52.374;4.816;2022-07-06T01:27:50;6.2;;;1.11;;
37419;SDS011;47344;52.374;4.816;2022-07-06T01:29:36;3.6;;;1.3;;
37419;SDS011;47344;52.374;4.816;2022-07-06T01:31:23;4.3;;;1.0;;
37419;SDS011;47344;52.374;4.816;2022-07-06T01:33:11;4.2;;;1.11;;
37419;SDS011;47344;52.374;4.816;2022-07-06T01:36:45;5.11;;;1.2;;
37419;SDS011;47344;52.374;4.816;2022-07-06T01:38:32;5.9;;;1.2;;
37419;SDS011;47344;52.374;4.816;2022-07-06T01:40:29;2.4;;;0.9;;
37419;SDS011;47344;52.374;4.816;2022-07-06T01:42:17;2.8;;;1.2;;
37419;SDS011;47344;52.374;4.816;2022-07-06T01:44:04;5.4;;;1.11;;
37419;SDS011;47344;52.374;4.816;2022-07-06T01:45:52;3.4;;;0.9;;
37419;SDS011;47344;52.374;4.816;2022-07-06T01:47:38;3.8;;;0.9;;
37419;SDS011;47344;52.374;4.816;2022-07-06T01:51:11;3.4;;;1.11;;
37419;SDS011;47344;52.374;4.816;2022-07-06T01:52:59;3.4;;;1.11;;
37419;SDS011;47344;52.374;4.816;2022-07-06T01:54:46;2.7;;;0.7;;
37419;SDS011;47344;52.374;4.816;2022-07-06T01:56:32;5.3;;;1.0;;
37419;SDS011;47344;52.374;4.816;2022-07-06T01:58:18;4.7;;;1.0;;
37419;SDS011;47344;52.374;4.816;2022-07-06T02:01:54;3.7;;;0.7;;
37419;SDS011;47344;52.374;4.816;2022-07-06T02:03:41;4.1;;;0.9;;
37419;SDS011;47344;52.374;4.816;2022-07-06T02:05:28;2.1;;;0.8;;
37419;SDS011;47344;52.374;4.816;2022-07-06T02:07:14;3.3;;;0.8;;
37419;SDS011;47344;52.374;4.816;2022-07-06T02:09:00;6.0;;;1.4;;
37419;SDS011;47344;52.374;4.816;2022-07-06T02:10:47;2.8;;;0.8;;
37419;SDS011;47344;52.374;4.816;2022-07-06T02:14:20;2.6;;;0.9;;
37419;SDS011;47344;52.374;4.816;2022-07-06T02:16:06;2.9;;;1.0;;
37419;SDS011;47344;52.374;4.816;2022-07-06T02:17:53;3.9;;;0.9;;
37419;SDS011;47344;52.374;4.816;2022-07-06T02:19:39;3.5;;;1.11;;
37419;SDS011;47344;52.374;4.816;2022-07-06T02:21:25;3.4;;;0.8;;
37419;SDS011;47344;52.374;4.816;2022-07-06T02:23:12;4.5;;;1.0;;
37419;SDS011;47344;52.374;4.816;2022-07-06T02:26:46;5.2;;;1.0;;
37419;SDS011;47344;52.374;4.816;2022-07-06T02:28:33;2.7;;;0.8;;
37419;SDS011;47344;52.374;4.816;2022-07-06T02:30:20;4.0;;;1.0;;
37419;SDS011;47344;52.374;4.816;2022-07-06T02:32:07;2.31;;;0.8;;
37419;SDS011;47344;52.374;4.816;2022-07-06T02:33:54;3.3;;;0.9;;
37419;SDS011;47344;52.374;4.816;2022-07-06T02:37:29;5.3;;;0.8;;
37419;SDS011;47344;52.374;4.816;2022-07-06T02:39:15;3.7;;;0.9;;
37419;SDS011;47344;52.374;4.816;2022-07-06T02:41:02;3.7;;;0.9;;
37419;SDS011;47344;52.374;4.816;2022-07-06T02:42:49;3.6;;;0.7;;
37419;SDS011;47344;52.374;4.816;2022-07-06T02:44:35;3.7;;;0.9;;
37419;SDS011;47344;52.374;4.816;2022-07-06T02:46:21;5.4;;;0.8;;
37419;SDS011;47344;52.374;4.816;2022-07-06T02:49:53;4.5;;;0.8;;
37419;SDS011;47344;52.374;4.816;2022-07-06T02:51:41;4.5;;;0.8;;
37419;SDS011;47344;52.374;4.816;2022-07-06T02:53:27;2.31;;;0.6;;
37419;SDS011;47344;52.374;4.816;2022-07-06T02:55:13;3.1;;;0.7;;
37419;SDS011;47344;52.374;4.816;2022-07-06T02:56:59;3.7;;;0.7;;
37419;SDS011;47344;52.374;4.816;2022-07-06T02:58:45;4.2;;;0.6;;
37419;SDS011;47344;52.374;4.816;2022-07-06T03:02:19;2.21;;;0.6;;
37419;SDS011;47344;52.374;4.816;2022-07-06T03:04:06;3.2;;;0.7;;
37419;SDS011;47344;52.374;4.816;2022-07-06T03:05:52;4.1;;;0.6;;
37419;SDS011;47344;52.374;4.816;2022-07-06T03:07:39;3.1;;;0.7;;
37419;SDS011;47344;52.374;4.816;2022-07-06T03:09:25;2.8;;;0.7;;
37419;SDS011;47344;52.374;4.816;2022-07-06T03:12:59;4.3;;;0.7;;
37419;SDS011;47344;52.374;4.816;2022-07-06T03:14:45;2.5;;;0.6;;
37419;SDS011;47344;52.374;4.816;2022-07-06T03:16:31;3.9;;;0.8;;
37419;SDS011;47344;52.374;4.816;2022-07-06T03:18:18;4.0;;;0.8;;
37419;SDS011;47344;52.374;4.816;2022-07-06T03:20:05;2.9;;;0.7;;
37419;SDS011;47344;52.374;4.816;2022-07-06T03:21:52;1.2;;;0.5;;
37419;SDS011;47344;52.374;4.816;2022-07-06T03:25:25;2.7;;;0.8;;
37419;SDS011;47344;52.374;4.816;2022-07-06T03:27:11;3.4;;;0.8;;
37419;SDS011;47344;52.374;4.816;2022-07-06T03:28:57;3.6;;;0.5;;
37419;SDS011;47344;52.374;4.816;2022-07-06T03:30:44;3.0;;;0.7;;
37419;SDS011;47344;52.374;4.816;2022-07-06T03:32:31;2.8;;;0.7;;
37419;SDS011;47344;52.374;4.816;2022-07-06T03:34:18;2.9;;;0.7;;
37419;SDS011;47344;52.374;4.816;2022-07-06T03:37:52;2.4;;;0.6;;
37419;SDS011;47344;52.374;4.816;2022-07-06T03:39:38;2.5;;;0.7;;
37419;SDS011;47344;52.374;4.816;2022-07-06T03:41:25;3.7;;;0.7;;
37419;SDS011;47344;52.374;4.816;2022-07-06T03:43:11;3.9;;;0.8;;
37419;SDS011;47344;52.374;4.816;2022-07-06T03:44:58;2.1;;;0.7;;
37419;SDS011;47344;52.374;4.816;2022-07-06T03:48:31;3.7;;;0.8;;
37419;SDS011;47344;52.374;4.816;2022-07-06T03:50:17;4.41;;;0.8;;
37419;SDS011;47344;52.374;4.816;2022-07-06T03:52:05;2.4;;;0.7;;
37419;SDS011;47344;52.374;4.816;2022-07-06T03:53:51;2.4;;;0.7;;
37419;SDS011;47344;52.374;4.816;2022-07-06T03:55:37;3.8;;;0.9;;
37419;SDS011;47344;52.374;4.816;2022-07-06T03:57:25;2.21;;;0.6;;
37419;SDS011;47344;52.374;4.816;2022-07-06T04:01:00;2.8;;;0.7;;
37419;SDS011;47344;52.374;4.816;2022-07-06T04:02:46;4.2;;;0.8;;
37419;SDS011;47344;52.374;4.816;2022-07-06T04:04:33;3.8;;;0.7;;
37419;SDS011;47344;52.374;4.816;2022-07-06T04:06:20;3.9;;;0.9;;
37419;SDS011;47344;52.374;4.816;2022-07-06T04:08:07;2.5;;;0.8;;
37419;SDS011;47344;52.374;4.816;2022-07-06T04:09:53;3.8;;;0.7;;
37419;SDS011;47344;52.374;4.816;2022-07-06T04:13:27;4.2;;;1.0;;
37419;SDS011;47344;52.374;4.816;2022-07-06T04:15:13;2.8;;;0.8;;
37419;SDS011;47344;52.374;4.816;2022-07-06T04:17:51;3.4;;;0.7;;
37419;SDS011;47344;52.374;4.816;2022-07-06T04:19:37;4.61;;;0.7;;
37419;SDS011;47344;52.374;4.816;2022-07-06T04:21:24;3.2;;;0.8;;
37419;SDS011;47344;52.374;4.816;2022-07-06T04:23:10;3.4;;;0.7;;
37419;SDS011;47344;52.374;4.816;2022-07-06T04:24:57;2.8;;;0.8;;
37419;SDS011;47344;52.374;4.816;2022-07-06T04:26:43;3.6;;;0.7;;
37419;SDS011;47344;52.374;4.816;2022-07-06T04:30:16;3.6;;;0.7;;
37419;SDS011;47344;52.374;4.816;2022-07-06T04:32:02;4.0;;;0.8;;
37419;SDS011;47344;52.374;4.816;2022-07-06T04:33:49;5.0;;;0.8;;
37419;SDS011;47344;52.374;4.816;2022-07-06T04:35:35;3.8;;;0.8;;
37419;SDS011;47344;52.374;4.816;2022-07-06T04:37:21;3.5;;;0.9;;
37419;SDS011;47344;52.374;4.816;2022-07-06T04:39:08;2.7;;;0.7;;
37419;SDS011;47344;52.374;4.816;2022-07-06T04:42:42;3.9;;;0.8;;
37419;SDS011;47344;52.374;4.816;2022-07-06T04:44:29;3.5;;;0.9;;
37419;SDS011;47344;52.374;4.816;2022-07-06T04:46:16;5.5;;;0.9;;
37419;SDS011;47344;52.374;4.816;2022-07-06T04:48:02;3.5;;;0.8;;
37419;SDS011;47344;52.374;4.816;2022-07-06T04:49:50;4.41;;;0.8;;
37419;SDS011;47344;52.374;4.816;2022-07-06T04:53:23;3.7;;;0.8;;
37419;SDS011;47344;52.374;4.816;2022-07-06T04:55:10;5.6;;;1.0;;
37419;SDS011;47344;52.374;4.816;2022-07-06T04:56:57;3.5;;;1.11;;
37419;SDS011;47344;52.374;4.816;2022-07-06T04:58:43;5.9;;;1.4;;
37419;SDS011;47344;52.374;4.816;2022-07-06T05:00:29;5.2;;;1.2;;
37419;SDS011;47344;52.374;4.816;2022-07-06T05:02:16;3.3;;;0.9;;
37419;SDS011;47344;52.374;4.816;2022-07-06T05:05:50;6.2;;;1.0;;
37419;SDS011;47344;52.374;4.816;2022-07-06T05:07:39;4.41;;;1.2;;
37419;SDS011;47344;52.374;4.816;2022-07-06T05:09:25;4.41;;;0.9;;
37419;SDS011;47344;52.374;4.816;2022-07-06T05:11:12;5.0;;;1.11;;
37419;SDS011;47344;52.374;4.816;2022-07-06T05:12:58;4.61;;;1.0;;
37419;SDS011;47344;52.374;4.816;2022-07-06T05:14:44;4.3;;;0.9;;
37419;SDS011;47344;52.374;4.816;2022-07-06T05:18:16;3.8;;;1.11;;
37419;SDS011;47344;52.374;4.816;2022-07-06T05:20:04;4.1;;;1.11;;
37419;SDS011;47344;52.374;4.816;2022-07-06T05:21:51;4.7;;;1.11;;
37419;SDS011;47344;52.374;4.816;2022-07-06T05:23:38;4.91;;;1.11;;
37419;SDS011;47344;52.374;4.816;2022-07-06T05:25:25;3.5;;;0.9;;
37419;SDS011;47344;52.374;4.816;2022-07-06T05:28:57;2.7;;;0.7;;
37419;SDS011;47344;52.374;4.816;2022-07-06T05:30:43;5.4;;;1.2;;
37419;SDS011;47344;52.374;4.816;2022-07-06T05:32:30;3.6;;;1.0;;
37419;SDS011;47344;52.374;4.816;2022-07-06T05:34:16;4.41;;;0.9;;
37419;SDS011;47344;52.374;4.816;2022-07-06T05:36:03;2.9;;;0.7;;
37419;SDS011;47344;52.374;4.816;2022-07-06T05:37:50;3.6;;;0.8;;
37419;SDS011;47344;52.374;4.816;2022-07-06T05:41:24;3.3;;;0.7;;
37419;SDS011;47344;52.374;4.816;2022-07-06T05:43:11;4.0;;;0.8;;
37419;SDS011;47344;52.374;4.816;2022-07-06T05:44:57;2.0;;;0.6;;
37419;SDS011;47344;52.374;4.816;2022-07-06T05:46:43;3.8;;;0.9;;
37419;SDS011;47344;52.374;4.816;2022-07-06T05:51:33;4.61;;;0.8;;
37419;SDS011;47344;52.374;4.816;2022-07-06T05:53:20;3.2;;;0.7;;
37419;SDS011;47344;52.374;4.816;2022-07-06T05:55:07;3.4;;;0.7;;
37419;SDS011;47344;52.374;4.816;2022-07-06T05:56:54;5.11;;;0.9;;
37419;SDS011;47344;52.374;4.816;2022-07-06T05:58:40;4.7;;;0.9;;
37419;SDS011;47344;52.374;4.816;2022-07-06T06:02:15;3.2;;;0.9;;
37419;SDS011;47344;52.374;4.816;2022-07-06T06:04:02;4.5;;;0.9;;
37419;SDS011;47344;52.374;4.816;2022-07-06T06:05:49;2.5;;;0.6;;
37419;SDS011;47344;52.374;4.816;2022-07-06T06:07:36;3.6;;;0.9;;
37419;SDS011;47344;52.374;4.816;2022-07-06T06:09:23;4.91;;;1.11;;
37419;SDS011;47344;52.374;4.816;2022-07-06T06:11:09;2.7;;;0.7;;
37419;SDS011;47344;52.374;4.816;2022-07-06T06:14:43;3.1;;;0.8;;
37419;SDS011;47344;52.374;4.816;2022-07-06T06:16:30;4.1;;;0.6;;
37419;SDS011;47344;52.374;4.816;2022-07-06T06:18:18;3.0;;;0.8;;
37419;SDS011;47344;52.374;4.816;2022-07-06T06:20:07;3.2;;;0.7;;
37419;SDS011;47344;52.374;4.816;2022-07-06T06:21:56;2.21;;;0.5;;
37419;SDS011;47344;52.374;4.816;2022-07-06T06:23:42;3.1;;;0.5;;
37419;SDS011;47344;52.374;4.816;2022-07-06T06:27:18;4.5;;;0.7;;
37419;SDS011;47344;52.374;4.816;2022-07-06T06:29:05;1.7;;;0.5;;
37419;SDS011;47344;52.374;4.816;2022-07-06T06:30:51;2.4;;;0.6;;
37419;SDS011;47344;52.374;4.816;2022-07-06T06:32:37;1.8;;;1.0;;
37419;SDS011;47344;52.374;4.816;2022-07-06T06:34:24;1.8;;;0.6;;
37419;SDS011;47344;52.374;4.816;2022-07-06T06:37:57;3.0;;;0.8;;
37419;SDS011;47344;52.374;4.816;2022-07-06T06:39:43;2.4;;;0.7;;
37419;SDS011;47344;52.374;4.816;2022-07-06T06:41:30;3.6;;;0.7;;
37419;SDS011;47344;52.374;4.816;2022-07-06T06:43:16;1.9;;;0.6;;
37419;SDS011;47344;52.374;4.816;2022-07-06T06:45:02;1.8;;;0.7;;
37419;SDS011;47344;52.374;4.816;2022-07-06T06:46:50;5.4;;;0.5;;
37419;SDS011;47344;52.374;4.816;2022-07-06T06:50:24;3.3;;;0.5;;
37419;SDS011;47344;52.374;4.816;2022-07-06T06:52:10;2.9;;;0.6;;
37419;SDS011;47344;52.374;4.816;2022-07-06T06:53:56;2.8;;;0.9;;
37419;SDS011;47344;52.374;4.816;2022-07-06T06:55:42;3.0;;;0.5;;
37419;SDS011;47344;52.374;4.816;2022-07-06T06:57:29;1.6;;;0.4;;
37419;SDS011;47344;52.374;4.816;2022-07-06T06:59:16;1.5;;;0.5;;
37419;SDS011;47344;52.374;4.816;2022-07-06T07:02:51;1.8;;;0.5;;
37419;SDS011;47344;52.374;4.816;2022-07-06T07:04:37;2.0;;;0.4;;
37419;SDS011;47344;52.374;4.816;2022-07-06T07:06:24;1.5;;;0.4;;
37419;SDS011;47344;52.374;4.816;2022-07-06T07:08:10;1.2;;;0.5;;
37419;SDS011;47344;52.374;4.816;2022-07-06T07:09:56;1.8;;;0.6;;
37419;SDS011;47344;52.374;4.816;2022-07-06T07:13:29;1.9;;;0.5;;
37419;SDS011;47344;52.374;4.816;2022-07-06T07:15:15;2.0;;;0.3;;
37419;SDS011;47344;52.374;4.816;2022-07-06T07:17:03;3.8;;;0.4;;
37419;SDS011;47344;52.374;4.816;2022-07-06T07:18:50;0.9;;;0.3;;
37419;SDS011;47344;52.374;4.816;2022-07-06T07:20:36;1.8;;;0.4;;
37419;SDS011;47344;52.374;4.816;2022-07-06T07:22:23;1.7;;;0.4;;
37419;SDS011;47344;52.374;4.816;2022-07-06T07:25:56;1.11;;;0.3;;
37419;SDS011;47344;52.374;4.816;2022-07-06T07:27:42;1.11;;;0.5;;
37419;SDS011;47344;52.374;4.816;2022-07-06T07:29:29;1.7;;;0.3;;
37419;SDS011;47344;52.374;4.816;2022-07-06T07:31:15;1.9;;;0.5;;
37419;SDS011;47344;52.374;4.816;2022-07-06T07:33:01;2.8;;;0.5;;
37419;SDS011;47344;52.374;4.816;2022-07-06T07:36:34;1.11;;;0.3;;
37419;SDS011;47344;52.374;4.816;2022-07-06T07:38:20;1.3;;;0.4;;
37419;SDS011;47344;52.374;4.816;2022-07-06T07:40:06;1.3;;;0.4;;
37419;SDS011;47344;52.374;4.816;2022-07-06T07:41:53;1.11;;;0.4;;
37419;SDS011;47344;52.374;4.816;2022-07-06T07:43:39;0.5;;;0.3;;
37419;SDS011;47344;52.374;4.816;2022-07-06T07:45:25;1.2;;;0.3;;
37419;SDS011;47344;52.374;4.816;2022-07-06T07:48:58;2.8;;;0.5;;
37419;SDS011;47344;52.374;4.816;2022-07-06T07:50:45;0.6;;;0.3;;
37419;SDS011;47344;52.374;4.816;2022-07-06T07:52:31;0.5;;;0.2;;
37419;SDS011;47344;52.374;4.816;2022-07-06T07:54:18;0.9;;;0.4;;
37419;SDS011;47344;52.374;4.816;2022-07-06T07:56:04;0.9;;;0.6;;
37419;SDS011;47344;52.374;4.816;2022-07-06T07:57:52;1.7;;;0.4;;
37419;SDS011;47344;52.374;4.816;2022-07-06T08:01:24;1.3;;;0.6;;
37419;SDS011;47344;52.374;4.816;2022-07-06T08:03:11;1.4;;;0.3;;
37419;SDS011;47344;52.374;4.816;2022-07-06T08:04:58;1.5;;;0.5;;
37419;SDS011;47344;52.374;4.816;2022-07-06T08:06:44;2.5;;;0.7;;
37419;SDS011;47344;52.374;4.816;2022-07-06T08:08:32;1.4;;;0.3;;
37419;SDS011;47344;52.374;4.816;2022-07-06T08:12:05;2.1;;;0.7;;
37419;SDS011;47344;52.374;4.816;2022-07-06T08:13:52;1.0;;;0.3;;
37419;SDS011;47344;52.374;4.816;2022-07-06T08:15:39;1.4;;;0.2;;
37419;SDS011;47344;52.374;4.816;2022-07-06T08:17:27;1.0;;;0.3;;
37419;SDS011;47344;52.374;4.816;2022-07-06T08:19:15;0.2;;;0.2;;
37419;SDS011;47344;52.374;4.816;2022-07-06T08:21:02;1.4;;;0.3;;
37419;SDS011;47344;52.374;4.816;2022-07-06T08:24:35;1.0;;;0.3;;
37419;SDS011;47344;52.374;4.816;2022-07-06T08:26:23;1.11;;;0.4;;
37419;SDS011;47344;52.374;4.816;2022-07-06T08:28:10;3.1;;;0.4;;
37419;SDS011;47344;52.374;4.816;2022-07-06T08:29:56;1.3;;;0.3;;
37419;SDS011;47344;52.374;4.816;2022-07-06T08:31:42;0.6;;;0.2;;
37419;SDS011;47344;52.374;4.816;2022-07-06T08:33:29;0.6;;;0.2;;
37419;SDS011;47344;52.374;4.816;2022-07-06T08:37:03;1.11;;;0.3;;
37419;SDS011;47344;52.374;4.816;2022-07-06T08:38:49;1.3;;;0.4;;
37419;SDS011;47344;52.374;4.816;2022-07-06T08:40:36;1.9;;;0.4;;
37419;SDS011;47344;52.374;4.816;2022-07-06T08:42:27;1.5;;;0.3;;
37419;SDS011;47344;52.374;4.816;2022-07-06T08:44:17;1.6;;;0.4;;
37419;SDS011;47344;52.374;4.816;2022-07-06T08:46:06;1.9;;;0.3;;
37419;SDS011;47344;52.374;4.816;2022-07-06T08:49:44;0.9;;;0.3;;
37419;SDS011;47344;52.374;4.816;2022-07-06T08:51:31;1.11;;;0.3;;
37419;SDS011;47344;52.374;4.816;2022-07-06T08:53:17;0.8;;;0.2;;
37419;SDS011;47344;52.374;4.816;2022-07-06T08:55:04;0.9;;;0.2;;
37419;SDS011;47344;52.374;4.816;2022-07-06T08:56:51;2.21;;;0.3;;
37419;SDS011;47344;52.374;4.816;2022-07-06T08:58:43;1.7;;;0.4;;
37419;SDS011;47344;52.374;4.816;2022-07-06T09:02:18;1.9;;;0.4;;
37419;SDS011;47344;52.374;4.816;2022-07-06T09:04:09;1.6;;;0.5;;
37419;SDS011;47344;52.374;4.816;2022-07-06T09:05:59;1.4;;;0.4;;
37419;SDS011;47344;52.374;4.816;2022-07-06T09:07:48;2.0;;;0.4;;
37419;SDS011;47344;52.374;4.816;2022-07-06T09:09:37;1.11;;;0.3;;
37419;SDS011;47344;52.374;4.816;2022-07-06T09:11:26;1.11;;;0.3;;
37419;SDS011;47344;52.374;4.816;2022-07-06T09:13:12;1.11;;;0.3;;
37419;SDS011;47344;52.374;4.816;2022-07-06T09:16:44;0.7;;;0.3;;
37419;SDS011;47344;52.374;4.816;2022-07-06T09:18:36;1.11;;;0.3;;
37419;SDS011;47344;52.374;4.816;2022-07-06T09:20:25;1.7;;;0.3;;
37419;SDS011;47344;52.374;4.816;2022-07-06T09:22:24;1.8;;;0.4;;
37419;SDS011;47344;52.374;4.816;2022-07-06T09:24:11;1.7;;;0.4;;
37419;SDS011;47344;52.374;4.816;2022-07-06T09:26:01;1.11;;;0.4;;
37419;SDS011;47344;52.374;4.816;2022-07-06T09:27:50;0.9;;;0.4;;
37419;SDS011;47344;52.374;4.816;2022-07-06T09:31:32;3.4;;;0.4;;
37419;SDS011;47344;52.374;4.816;2022-07-06T09:33:18;0.7;;;0.3;;
37419;SDS011;47344;52.374;4.816;2022-07-06T09:35:04;2.0;;;0.3;;
37419;SDS011;47344;52.374;4.816;2022-07-06T09:36:51;1.0;;;0.2;;
37419;SDS011;47344;52.374;4.816;2022-07-06T09:38:37;1.7;;;0.3;;
37419;SDS011;47344;52.374;4.816;2022-07-06T09:40:24;1.2;;;0.3;;
37419;SDS011;47344;52.374;4.816;2022-07-06T09:43:57;2.31;;;0.3;;
37419;SDS011;47344;52.374;4.816;2022-07-06T09:45:43;1.8;;;0.4;;
37419;SDS011;47344;52.374;4.816;2022-07-06T09:47:32;2.1;;;0.3;;
37419;SDS011;47344;52.374;4.816;2022-07-06T09:49:19;0.9;;;0.3;;
37419;SDS011;47344;52.374;4.816;2022-07-06T09:51:07;3.6;;;0.4;;
37419;SDS011;47344;52.374;4.816;2022-07-06T09:52:54;0.8;;;0.2;;
37419;SDS011;47344;52.374;4.816;2022-07-06T09:56:35;1.6;;;0.4;;
37419;SDS011;47344;52.374;4.816;2022-07-06T09:58:22;1.8;;;0.3;;
37419;SDS011;47344;52.374;4.816;2022-07-06T10:00:09;2.9;;;0.6;;
37419;SDS011;47344;52.374;4.816;2022-07-06T10:01:57;1.7;;;0.3;;
37419;SDS011;47344;52.374;4.816;2022-07-06T10:03:46;2.0;;;0.3;;
37419;SDS011;47344;52.374;4.816;2022-07-06T10:05:35;1.7;;;0.4;;
37419;SDS011;47344;52.374;4.816;2022-07-06T10:09:12;1.2;;;0.4;;
37419;SDS011;47344;52.374;4.816;2022-07-06T10:11:00;1.5;;;0.4;;
37419;SDS011;47344;52.374;4.816;2022-07-06T10:12:49;1.6;;;0.5;;
37419;SDS011;47344;52.374;4.816;2022-07-06T10:14:36;2.1;;;0.5;;
37419;SDS011;47344;52.374;4.816;2022-07-06T10:16:24;3.1;;;0.4;;
37419;SDS011;47344;52.374;4.816;2022-07-06T10:18:12;1.2;;;0.4;;
37419;SDS011;47344;52.374;4.816;2022-07-06T10:21:48;1.2;;;0.3;;
37419;SDS011;47344;52.374;4.816;2022-07-06T10:23:36;1.2;;;0.3;;
37419;SDS011;47344;52.374;4.816;2022-07-06T10:25:22;1.7;;;0.5;;
37419;SDS011;47344;52.374;4.816;2022-07-06T10:27:10;1.9;;;0.5;;
37419;SDS011;47344;52.374;4.816;2022-07-06T10:28:59;1.2;;;0.4;;
37419;SDS011;47344;52.374;4.816;2022-07-06T10:30:46;1.8;;;0.6;;
37419;SDS011;47344;52.374;4.816;2022-07-06T10:34:25;2.7;;;0.5;;
37419;SDS011;47344;52.374;4.816;2022-07-06T10:36:12;2.8;;;0.5;;
37419;SDS011;47344;52.374;4.816;2022-07-06T10:38:03;1.0;;;0.6;;
37419;SDS011;47344;52.374;4.816;2022-07-06T10:42:55;4.1;;;0.5;;
37419;SDS011;47344;52.374;4.816;2022-07-06T10:44:45;2.6;;;0.5;;
37419;SDS011;47344;52.374;4.816;2022-07-06T10:46:32;2.0;;;0.6;;
37419;SDS011;47344;52.374;4.816;2022-07-06T10:48:22;2.31;;;0.4;;
37419;SDS011;47344;52.374;4.816;2022-07-06T10:50:09;1.4;;;0.6;;
37419;SDS011;47344;52.374;4.816;2022-07-06T10:51:56;3.3;;;0.6;;
37419;SDS011;47344;52.374;4.816;2022-07-06T10:53:44;2.6;;;0.7;;
37419;SDS011;47344;52.374;4.816;2022-07-06T10:57:20;2.1;;;0.5;;
37419;SDS011;47344;52.374;4.816;2022-07-06T10:59:08;1.2;;;0.4;;
37419;SDS011;47344;52.374;4.816;2022-07-06T11:00:56;1.3;;;0.3;;
37419;SDS011;47344;52.374;4.816;2022-07-06T11:02:42;1.0;;;0.5;;
37419;SDS011;47344;52.374;4.816;2022-07-06T11:04:31;2.31;;;0.5;;
37419;SDS011;47344;52.374;4.816;2022-07-06T11:06:18;2.8;;;0.5;;
37419;SDS011;47344;52.374;4.816;2022-07-06T11:09:57;1.3;;;0.6;;
37419;SDS011;47344;52.374;4.816;2022-07-06T11:11:48;1.0;;;0.4;;
37419;SDS011;47344;52.374;4.816;2022-07-06T11:13:38;3.4;;;0.5;;
37419;SDS011;47344;52.374;4.816;2022-07-06T11:16:00;3.7;;;0.6;;
37419;SDS011;47344;52.374;4.816;2022-07-06T11:18:18;2.8;;;0.5;;
37419;SDS011;47344;52.374;4.816;2022-07-06T11:20:08;2.6;;;0.4;;
37419;SDS011;47344;52.374;4.816;2022-07-06T11:21:58;2.8;;;0.6;;
37419;SDS011;47344;52.374;4.816;2022-07-06T11:23:52;4.1;;;0.5;;
37419;SDS011;47344;52.374;4.816;2022-07-06T11:25:40;2.9;;;0.5;;
37419;SDS011;47344;52.374;4.816;2022-07-06T11:27:27;0.8;;;0.4;;
37419;SDS011;47344;52.374;4.816;2022-07-06T11:29:13;1.9;;;0.5;;
37419;SDS011;47344;52.374;4.816;2022-07-06T11:32:47;2.21;;;0.8;;
37419;SDS011;47344;52.374;4.816;2022-07-06T11:34:34;1.6;;;0.4;;
37419;SDS011;47344;52.374;4.816;2022-07-06T11:36:22;3.6;;;0.5;;
37419;SDS011;47344;52.374;4.816;2022-07-06T11:38:25;1.9;;;0.6;;
37419;SDS011;47344;52.374;4.816;2022-07-06T11:40:11;1.6;;;0.5;;
37419;SDS011;47344;52.374;4.816;2022-07-06T11:42:01;2.0;;;0.6;;
37419;SDS011;47344;52.374;4.816;2022-07-06T11:43:51;1.3;;;0.6;;
37419;SDS011;47344;52.374;4.816;2022-07-06T11:47:29;2.5;;;0.5;;
37419;SDS011;47344;52.374;4.816;2022-07-06T11:49:17;2.31;;;0.5;;
37419;SDS011;47344;52.374;4.816;2022-07-06T11:51:05;3.3;;;0.7;;
37419;SDS011;47344;52.374;4.816;2022-07-06T11:52:51;3.8;;;0.5;;
37419;SDS011;47344;52.374;4.816;2022-07-06T11:54:38;1.5;;;0.6;;
37419;SDS011;47344;52.374;4.816;2022-07-06T11:56:27;2.8;;;0.6;;
37419;SDS011;47344;52.374;4.816;2022-07-06T12:00:06;1.4;;;0.5;;
37419;SDS011;47344;52.374;4.816;2022-07-06T12:01:58;2.21;;;0.7;;
37419;SDS011;47344;52.374;4.816;2022-07-06T12:03:45;3.5;;;0.6;;
37419;SDS011;47344;52.374;4.816;2022-07-06T12:05:31;2.31;;;0.5;;
37419;SDS011;47344;52.374;4.816;2022-07-06T12:07:19;2.21;;;0.7;;
37419;SDS011;47344;52.374;4.816;2022-07-06T12:09:06;2.9;;;0.5;;
37419;SDS011;47344;52.374;4.816;2022-07-06T12:12:39;1.4;;;0.5;;
37419;SDS011;47344;52.374;4.816;2022-07-06T12:14:25;3.2;;;0.8;;
37419;SDS011;47344;52.374;4.816;2022-07-06T12:16:13;2.1;;;0.7;;
37419;SDS011;47344;52.374;4.816;2022-07-06T12:18:01;3.1;;;0.7;;
37419;SDS011;47344;52.374;4.816;2022-07-06T12:19:52;2.5;;;0.7;;
37419;SDS011;47344;52.374;4.816;2022-07-06T12:21:43;2.5;;;0.6;;
37419;SDS011;47344;52.374;4.816;2022-07-06T12:23:37;2.5;;;0.7;;
37419;SDS011;47344;52.374;4.816;2022-07-06T12:27:17;3.0;;;0.6;;
37419;SDS011;47344;52.374;4.816;2022-07-06T12:29:09;3.6;;;0.7;;
37419;SDS011;47344;52.374;4.816;2022-07-06T12:30:58;2.0;;;0.7;;
37419;SDS011;47344;52.374;4.816;2022-07-06T12:32:44;5.0;;;0.7;;
37419;SDS011;47344;52.374;4.816;2022-07-06T12:34:32;4.41;;;0.8;;
37419;SDS011;47344;52.374;4.816;2022-07-06T12:36:18;5.2;;;0.6;;
37419;SDS011;47344;52.374;4.816;2022-07-06T12:39:51;1.9;;;0.8;;
37419;SDS011;47344;52.374;4.816;2022-07-06T12:41:41;2.9;;;0.8;;
37419;SDS011;47344;52.374;4.816;2022-07-06T12:43:38;7.5;;;0.8;;
37419;SDS011;47344;52.374;4.816;2022-07-06T12:45:26;3.4;;;0.8;;
37419;SDS011;47344;52.374;4.816;2022-07-06T12:47:16;3.4;;;0.8;;
37419;SDS011;47344;52.374;4.816;2022-07-06T12:49:10;2.31;;;0.6;;
37419;SDS011;47344;52.374;4.816;2022-07-06T12:51:01;2.1;;;0.8;;
37419;SDS011;47344;52.374;4.816;2022-07-06T12:54:34;3.0;;;0.7;;
37419;SDS011;47344;52.374;4.816;2022-07-06T12:56:26;2.7;;;0.7;;
37419;SDS011;47344;52.374;4.816;2022-07-06T12:58:17;3.9;;;0.8;;
37419;SDS011;47344;52.374;4.816;2022-07-06T13:00:06;3.1;;;0.7;;